Time;durP1;ratioP1;P1;durP2;ratioP2;P2;SDS_P1;SDS_P2;PMS_P1;PMS_P2;Temp;Humidity;BMP_temperature;BMP_pressure;BME280_temperature;BME280_humidity;BME280_pressure;Samples;Min_cycle;Max_cycle;Signal;HPM_P1;HPM_P2
2023/07/07 07:26:04;;;;;;;9.75;4.32;;;21.10;99.90;;;;;;5149594;27;20498;-79
2023/07/07 07:28:52;;;;;;;12.05;5.13;;;21.00;99.90;;;;;;5139242;27;20203;-79
2023/07/07 07:31:38;;;;;;;8.45;4.95;;;21.10;99.90;;;;;;5131899;27;20058;-80
2023/07/07 07:34:28;;;;;;;11.43;4.85;;;21.30;99.90;;;;;;5146208;27;20159;-80
2023/07/07 07:37:15;;;;;;;15.15;5.45;;;21.40;99.90;;;;;;5150779;27;20043;-80
2023/07/07 07:40:01;;;;;;;11.40;4.22;;;21.50;99.90;;;;;;5168553;27;20494;-80
2023/07/07 07:42:47;;;;;;;9.35;5.15;;;21.60;99.90;;;;;;5167973;27;20047;-79
2023/07/07 07:45:33;;;;;;;9.38;4.32;;;21.80;99.90;;;;;;5167945;27;20058;-80
2023/07/07 07:48:19;;;;;;;12.82;4.53;;;21.90;99.90;;;;;;5150352;27;20077;-79
2023/07/07 07:51:06;;;;;;;9.27;4.70;;;22.00;99.90;;;;;;5168582;27;20057;-80
2023/07/07 07:53:52;;;;;;;11.75;5.22;;;22.20;99.90;;;;;;5167961;27;20053;-80
2023/07/07 07:56:39;;;;;;;14.95;5.30;;;22.50;99.90;;;;;;5168219;27;20058;-80
2023/07/07 07:59:25;;;;;;;11.18;4.47;;;22.50;99.90;;;;;;5168331;27;20050;-80
2023/07/07 08:02:12;;;;;;;8.27;4.03;;;22.60;99.90;;;;;;5167649;27;20046;-80
2023/07/07 08:04:58;;;;;;;9.30;4.60;;;22.70;99.90;;;;;;5167747;27;20062;-80
2023/07/07 08:07:44;;;;;;;9.60;4.07;;;22.90;99.90;;;;;;5167431;27;20498;-79
2023/07/07 08:10:30;;;;;;;10.77;4.78;;;23.00;99.40;;;;;;5167628;27;20043;-80
2023/07/07 08:13:16;;;;;;;9.88;4.00;;;22.90;98.30;;;;;;5167872;27;20121;-79
2023/07/07 08:16:03;;;;;;;11.40;4.07;;;23.00;98.20;;;;;;5152898;27;20134;-79
2023/07/07 08:18:49;;;;;;;7.88;4.10;;;23.20;98.70;;;;;;5168062;27;20047;-80
2023/07/07 08:21:35;;;;;;;8.88;4.05;;;23.40;98.40;;;;;;5152381;27;20038;-79
2023/07/07 08:24:22;;;;;;;8.25;3.15;;;23.50;98.20;;;;;;5167521;27;20046;-80
2023/07/07 08:27:09;;;;;;;9.13;3.78;;;23.70;98.10;;;;;;5152576;27;20053;-81
2023/07/07 08:29:55;;;;;;;8.85;3.53;;;23.90;97.70;;;;;;5168442;27;20061;-80
2023/07/07 08:32:41;;;;;;;8.43;4.13;;;23.90;97.10;;;;;;5135690;27;20094;-80
2023/07/07 08:35:27;;;;;;;7.18;3.17;;;23.80;96.90;;;;;;5164372;27;20050;-81
2023/07/07 08:38:14;;;;;;;5.65;3.20;;;24.00;96.50;;;;;;5154337;27;20107;-80
2023/07/07 08:41:00;;;;;;;5.57;2.85;;;24.30;96.20;;;;;;5135094;27;20076;-80
2023/07/07 08:43:47;;;;;;;9.77;3.13;;;24.50;95.80;;;;;;5153128;27;20046;-80
2023/07/07 08:46:52;;;;;;;6.55;2.85;;;24.50;95.70;;;;;;5153432;27;20085;-80
2023/07/07 08:50:02;;;;;;;7.28;3.75;;;24.80;95.70;;;;;;5154214;27;20047;-80
2023/07/07 08:53:16;;;;;;;6.43;3.38;;;25.10;94.80;;;;;;5153599;27;20053;-81
2023/07/07 08:56:17;;;;;;;5.97;2.58;;;25.30;94.50;;;;;;5152878;27;20049;-80
2023/07/07 08:59:13;;;;;;;9.48;3.67;;;25.40;94.00;;;;;;5153946;27;20130;-81
2023/07/07 09:02:16;;;;;;;8.65;3.00;;;25.70;94.10;;;;;;5153755;27;20490;-80
2023/07/07 09:05:33;;;;;;;7.25;3.08;;;25.90;93.70;;;;;;5153433;27;20054;-80
2023/07/07 09:08:38;;;;;;;6.38;2.75;;;26.00;93.70;;;;;;5153498;27;20038;-80
2023/07/07 09:11:53;;;;;;;7.60;3.30;;;26.20;94.00;;;;;;5154165;27;20038;-81
2023/07/07 09:14:40;;;;;;;5.75;2.60;;;26.30;91.30;;;;;;5099596;27;20050;-81
2023/07/07 09:17:38;;;;;;;5.75;2.40;;;26.30;93.10;;;;;;5153351;27;20104;-81
2023/07/07 09:20:26;;;;;;;5.68;2.75;;;26.50;92.20;;;;;;5152809;27;20157;-82
2023/07/07 09:23:20;;;;;;;5.43;2.70;;;26.60;92.00;;;;;;5152878;27;20061;-81
2023/07/07 09:26:25;;;;;;;8.02;2.90;;;26.70;91.90;;;;;;5153420;27;20252;-81
2023/07/07 09:29:20;;;;;;;6.35;3.00;;;26.80;91.10;;;;;;5152839;27;20521;-81
2023/07/07 09:32:12;;;;;;;5.25;2.13;;;26.80;90.90;;;;;;5134618;27;20687;-81
2023/07/07 09:34:59;;;;;;;7.53;3.08;;;27.00;91.20;;;;;;5134413;27;20053;-80
2023/07/07 09:38:14;;;;;;;5.63;2.60;;;27.20;90.80;;;;;;5153914;27;20054;-81
2023/07/07 09:41:06;;;;;;;;;;;27.20;90.30;;;;;;5153127;27;20406;-81
2023/07/07 09:44:01;;;;;;;6.55;2.03;;;27.30;87.10;;;;;;5153010;27;19958;-81
2023/07/07 09:46:54;;;;;;;5.47;1.88;;;27.40;89.20;;;;;;5152853;27;20043;-81
2023/07/07 09:49:51;;;;;;;5.07;2.45;;;27.60;88.80;;;;;;5153432;27;20133;-81
2023/07/07 09:52:54;;;;;;;5.10;2.10;;;27.70;87.00;;;;;;5152524;27;20038;-82
2023/07/07 09:55:41;;;;;;;4.68;2.13;;;28.00;86.50;;;;;;5152095;27;20129;-82
2023/07/07 09:58:30;;;;;;;7.35;2.78;;;28.00;85.10;;;;;;5153101;27;20050;-82
2023/07/07 10:01:18;;;;;;;4.93;2.42;;;28.10;84.00;;;;;;5152679;27;20096;-81
2023/07/07 10:04:13;;;;;;;6.40;2.42;;;28.10;83.00;;;;;;5133665;27;20446;-81
2023/07/07 10:07:06;;;;;;;6.93;2.15;;;28.00;82.70;;;;;;5152390;27;20043;-80
2023/07/07 10:09:52;;;;;;;5.45;2.15;;;28.20;81.10;;;;;;5152486;27;20078;-81
2023/07/07 10:12:39;;;;;;;9.52;2.38;;;28.50;81.60;;;;;;5152632;27;20047;-81
2023/07/07 10:15:57;;;;;;;4.85;1.67;;;28.30;80.60;;;;;;5151991;27;20051;-81
2023/07/07 10:18:43;;;;;;;5.10;2.00;;;28.10;78.50;;;;;;5152699;27;20062;-80
2023/07/07 10:21:30;;;;;;;4.93;1.83;;;28.20;78.80;;;;;;5153322;27;20058;-81
2023/07/07 10:24:16;;;;;;;5.78;2.13;;;28.20;78.20;;;;;;5152022;27;20137;-81
2023/07/07 10:27:03;;;;;;;3.35;1.70;;;28.40;78.30;;;;;;5153041;27;20146;-82
2023/07/07 10:29:49;;;;;;;5.85;2.22;;;28.50;78.30;;;;;;5152069;27;20480;-82
2023/07/07 10:32:36;;;;;;;6.15;1.95;;;28.80;78.40;;;;;;5152837;27;20414;-81
2023/07/07 10:35:24;;;;;;;7.20;2.50;;;29.10;79.00;;;;;;5151852;27;20042;-81
2023/07/07 10:38:11;;;;;;;7.35;2.53;;;29.50;78.30;;;;;;5132589;27;20498;-81
2023/07/07 10:40:58;;;;;;;6.57;2.05;;;29.60;76.20;;;;;;5151812;27;20133;-81
2023/07/07 10:43:44;;;;;;;7.25;2.78;;;29.60;75.60;;;;;;5137668;27;20047;-81
2023/07/07 10:46:30;;;;;;;5.95;2.13;;;29.70;75.60;;;;;;5151056;27;20081;-81
2023/07/07 10:49:20;;;;;;;4.80;2.58;;;29.80;76.10;;;;;;5152271;27;20414;-81
2023/07/07 10:52:21;;;;;;;4.70;1.88;;;29.90;76.10;;;;;;5151944;27;20069;-82
2023/07/07 10:55:22;;;;;;;7.22;2.25;;;30.30;74.70;;;;;;5144452;27;20118;-80
2023/07/07 10:58:30;;;;;;;3.90;2.08;;;30.40;75.00;;;;;;5153354;27;20397;-82
2023/07/07 11:01:23;;;;;;;5.95;2.28;;;30.70;73.30;;;;;;5156294;27;20060;-81
2023/07/07 11:04:31;;;;;;;5.28;2.05;;;30.80;72.70;;;;;;5152896;27;20073;-81
2023/07/07 11:08:01;;;;;;;5.28;1.80;;;30.60;70.80;;;;;;5171785;27;20149;-81
2023/07/07 11:11:17;;;;;;;3.95;1.42;;;30.50;71.90;;;;;;5128302;27;20046;-81
2023/07/07 11:14:22;;;;;;;4.82;2.92;;;30.80;73.20;;;;;;5153499;27;20413;-81
2023/07/07 11:17:08;;;;;;;5.35;1.90;;;31.00;72.20;;;;;;5171232;27;20398;-80
2023/07/07 11:20:10;;;;;;;7.22;2.40;;;31.20;70.80;;;;;;5172676;27;20053;-81
2023/07/07 11:23:02;;;;;;;5.78;2.50;;;31.10;70.10;;;;;;5172797;27;20050;-82
2023/07/07 11:25:56;;;;;;;11.02;2.10;;;31.40;69.80;;;;;;5172464;27;20508;-80
2023/07/07 11:29:06;;;;;;;5.07;2.47;;;31.70;68.90;;;;;;5171239;27;20051;-81
2023/07/07 11:32:18;;;;;;;5.38;2.38;;;31.80;69.70;;;;;;5172756;27;20050;-81
2023/07/07 11:35:25;;;;;;;4.22;1.83;;;31.90;68.30;;;;;;5133904;27;20098;-81
2023/07/07 11:38:53;;;;;;;4.95;2.20;;;31.60;67.40;;;;;;5152203;27;20409;-80
2023/07/07 11:42:00;;;;;;;4.80;2.13;;;31.40;67.80;;;;;;5128877;27;20042;-80
2023/07/07 11:44:52;;;;;;;6.53;2.20;;;31.20;66.30;;;;;;5172090;27;20050;-81
2023/07/07 11:48:08;;;;;;;4.18;2.05;;;31.40;69.80;;;;;;5171143;27;20054;-80
2023/07/07 11:51:20;;;;;;;3.90;1.98;;;32.00;68.50;;;;;;5169691;27;20050;-80
2023/07/07 11:54:27;;;;;;;6.13;2.15;;;32.20;68.20;;;;;;5170721;27;20098;-82
2023/07/07 11:57:41;;;;;;;7.75;2.10;;;32.40;64.40;;;;;;5171578;27;20050;-81
2023/07/07 12:00:38;;;;;;;3.92;2.00;;;32.50;65.50;;;;;;5172110;27;20045;-81
2023/07/07 12:03:35;;;;;;;6.40;2.17;;;32.70;66.10;;;;;;5171335;27;20042;-81
2023/07/07 12:06:32;;;;;;;4.78;1.92;;;32.80;65.00;;;;;;5171508;27;20049;-80
2023/07/07 12:09:44;;;;;;;6.25;2.30;;;32.70;63.80;;;;;;5171254;27;20046;-81
2023/07/07 12:12:38;;;;;;;5.03;2.13;;;32.40;65.40;;;;;;5174266;27;20088;-81
2023/07/07 12:15:28;;;;;;;6.15;2.33;;;32.60;64.30;;;;;;5175416;27;20054;-80
2023/07/07 12:18:30;;;;;;;4.10;1.75;;;32.50;64.20;;;;;;5156862;27;20046;-83
2023/07/07 12:21:23;;;;;;;6.95;1.92;;;32.50;62.10;;;;;;5175048;27;20134;-81
2023/07/07 12:24:25;;;;;;;4.72;1.98;;;32.90;64.10;;;;;;5174762;27;20057;-83
2023/07/07 12:27:20;;;;;;;5.50;1.92;;;33.30;62.10;;;;;;5174875;27;20099;-82
2023/07/07 12:30:19;;;;;;;7.45;2.47;;;33.90;62.20;;;;;;5156248;27;20042;-83
2023/07/07 12:33:06;;;;;;;7.35;2.17;;;34.30;61.60;;;;;;5175064;27;20517;-81
2023/07/07 12:35:56;;;;;;;4.93;1.90;;;34.60;62.90;;;;;;5173454;27;20053;-81
2023/07/07 12:38:47;;;;;;;4.82;2.08;;;34.60;62.70;;;;;;5173761;27;20042;-82
2023/07/07 12:41:36;;;;;;;7.15;2.40;;;34.40;62.70;;;;;;5173302;27;20124;-81
2023/07/07 12:44:22;;;;;;;6.15;2.35;;;35.00;62.60;;;;;;5174527;27;20114;-81
2023/07/07 12:47:32;;;;;;;5.75;2.38;;;35.20;62.30;;;;;;5154783;27;20046;-82
2023/07/07 12:50:33;;;;;;;5.70;2.15;;;35.30;59.50;;;;;;5173966;27;20121;-81
2023/07/07 12:53:25;;;;;;;4.45;2.08;;;35.20;58.70;;;;;;5174375;27;20046;-80
2023/07/07 12:56:15;;;;;;;5.20;2.20;;;35.50;59.30;;;;;;5173717;27;20053;-80
2023/07/07 12:59:04;;;;;;;4.97;2.00;;;35.20;59.70;;;;;;5158352;27;20041;-80
2023/07/07 13:02:12;;;;;;;5.03;1.92;;;35.00;57.80;;;;;;5174329;27;20056;-80
2023/07/07 13:05:27;;;;;;;6.75;2.33;;;35.10;57.60;;;;;;5173448;27;20049;-81
2023/07/07 13:08:40;;;;;;;6.32;1.98;;;34.60;56.10;;;;;;5174086;27;20046;-81
2023/07/07 13:11:35;;;;;;;5.45;2.33;;;34.70;56.30;;;;;;5159101;27;20046;-82
2023/07/07 13:14:26;;;;;;;8.73;2.10;;;34.90;58.10;;;;;;5157719;27;20046;-81
2023/07/07 13:17:27;;;;;;;6.53;2.40;;;35.30;57.00;;;;;;5174470;27;20140;-81
2023/07/07 13:20:16;;;;;;;6.72;2.65;;;35.90;56.60;;;;;;5172058;27;20425;-81
2023/07/07 13:23:08;;;;;;;6.05;2.00;;;35.90;57.40;;;;;;5173970;27;20090;-83
2023/07/07 13:25:54;;;;;;;4.45;2.00;;;36.00;54.80;;;;;;5158026;27;20038;-80
2023/07/07 13:28:40;;;;;;;7.45;2.28;;;36.20;55.50;;;;;;5174128;27;20050;-81
2023/07/07 13:31:27;;;;;;;5.78;2.22;;;36.40;54.70;;;;;;5173003;27;20054;-80
2023/07/07 13:34:18;;;;;;;5.50;2.33;;;36.80;55.20;;;;;;5172925;27;20091;-81
2023/07/07 13:37:08;;;;;;;4.30;1.63;;;37.10;56.00;;;;;;5173621;27;20421;-80
2023/07/07 13:39:56;;;;;;;5.90;2.17;;;37.30;56.60;;;;;;5173726;27;20130;-80
2023/07/07 13:42:47;;;;;;;5.78;2.03;;;37.70;55.70;;;;;;5173740;27;20102;-80
2023/07/07 13:45:35;;;;;;;9.13;2.60;;;37.40;55.10;;;;;;5172715;27;20058;-81
2023/07/07 13:48:27;;;;;;;12.00;2.28;;;37.50;56.50;;;;;;5171453;27;20101;-80
2023/07/07 13:51:26;;;;;;;7.47;2.05;;;37.70;55.30;;;;;;5172493;27;20042;-82
2023/07/07 13:54:16;;;;;;;6.25;1.98;;;37.50;55.60;;;;;;5154926;27;20481;-80
2023/07/07 13:57:05;;;;;;;6.47;2.30;;;37.70;55.50;;;;;;5172603;27;20206;-81
2023/07/07 13:59:51;;;;;;;5.13;1.83;;;37.90;55.10;;;;;;5173425;27;20046;-81
2023/07/07 14:02:43;;;;;;;7.38;2.30;;;37.60;55.30;;;;;;5173213;27;20439;-80
2023/07/07 14:05:33;;;;;;;6.70;2.58;;;37.70;55.60;;;;;;5172300;27;20443;-79
2023/07/07 14:08:25;;;;;;;4.93;2.00;;;37.60;54.30;;;;;;5173134;27;20046;-80
2023/07/07 14:11:21;;;;;;;4.35;1.95;;;37.40;54.70;;;;;;5173001;27;20168;-80
2023/07/07 14:14:08;;;;;;;3.70;2.03;;;37.70;55.00;;;;;;5172237;27;20042;-79
2023/07/07 14:17:05;;;;;;;5.10;2.40;;;37.90;54.50;;;;;;5172640;27;20038;-81
2023/07/07 14:19:51;;;;;;;5.40;1.75;;;38.20;53.70;;;;;;5172432;27;20532;-79
2023/07/07 14:22:38;;;;;;;3.75;1.75;;;38.40;54.60;;;;;;5154249;27;20132;-80
2023/07/07 14:25:26;;;;;;;6.18;1.90;;;38.20;53.30;;;;;;5171962;27;20122;-81
2023/07/07 14:28:19;;;;;;;7.53;2.38;;;37.20;54.10;;;;;;5171984;27;20563;-80
2023/07/07 14:31:09;;;;;;;9.40;2.53;;;36.70;54.60;;;;;;5172542;27;20046;-78
2023/07/07 14:34:01;;;;;;;4.95;1.98;;;37.20;55.60;;;;;;5153519;27;20069;-79
2023/07/07 14:36:48;;;;;;;5.10;2.20;;;37.80;54.60;;;;;;5173227;27;20179;-79
2023/07/07 14:39:36;;;;;;;7.50;2.22;;;38.10;53.80;;;;;;5171274;27;20054;-79
2023/07/07 14:42:24;;;;;;;6.00;2.00;;;38.40;52.60;;;;;;5172214;27;20534;-80
2023/07/07 14:45:23;;;;;;;6.43;2.00;;;38.20;52.90;;;;;;5171801;27;20158;-79
2023/07/07 14:48:22;;;;;;;4.40;1.83;;;38.30;52.80;;;;;;5154150;27;20070;-79
2023/07/07 14:51:09;;;;;;;5.43;1.90;;;38.30;53.40;;;;;;5172627;27;20057;-79
2023/07/07 14:53:58;;;;;;;7.40;2.45;;;38.20;52.90;;;;;;5157055;27;20049;-81
2023/07/07 14:56:48;;;;;;;6.28;2.15;;;38.60;53.20;;;;;;5152989;27;20383;-80
2023/07/07 14:59:36;;;;;;;4.93;2.00;;;38.30;51.90;;;;;;5171797;27;20054;-82
2023/07/07 15:02:25;;;;;;;5.63;1.83;;;38.00;52.70;;;;;;5171861;27;20050;-79
2023/07/07 15:05:40;;;;;;;4.68;2.22;;;38.30;53.30;;;;;;5172463;27;20174;-81
2023/07/07 15:08:29;;;;;;;4.60;1.88;;;38.00;52.70;;;;;;5170935;27;20107;-80
2023/07/07 15:11:17;;;;;;;5.03;2.28;;;37.80;53.40;;;;;;5171615;27;20042;-79
2023/07/07 15:14:03;;;;;;;4.75;2.13;;;37.60;52.60;;;;;;5171721;27;20050;-80
2023/07/07 15:16:49;;;;;;;6.03;2.42;;;37.40;52.90;;;;;;5171098;27;20189;-80
2023/07/07 15:19:35;;;;;;;3.92;2.03;;;37.30;52.80;;;;;;5170563;27;20050;-80
2023/07/07 15:22:22;;;;;;;4.57;1.95;;;37.30;53.00;;;;;;5170741;27;20046;-80
2023/07/07 15:25:08;;;;;;;6.20;2.50;;;37.20;53.50;;;;;;5171436;27;20058;-79
2023/07/07 15:27:54;;;;;;;5.38;2.40;;;37.00;52.90;;;;;;5152762;27;20054;-79
2023/07/07 15:30:41;;;;;;;4.50;2.17;;;37.10;52.80;;;;;;5170961;27;20046;-81
2023/07/07 15:33:27;;;;;;;3.88;1.80;;;37.00;53.00;;;;;;5171514;27;20383;-82
2023/07/07 15:36:15;;;;;;;5.82;2.47;;;36.60;53.00;;;;;;5170306;27;20477;-80
2023/07/07 15:39:01;;;;;;;7.13;2.45;;;36.40;53.00;;;;;;5170547;27;20558;-80
2023/07/07 15:41:47;;;;;;;7.30;2.30;;;36.30;53.00;;;;;;5152770;27;20103;-81
2023/07/07 15:44:33;;;;;;;6.57;2.53;;;36.20;53.40;;;;;;5137800;27;20087;-81
2023/07/07 15:47:22;;;;;;;8.40;2.75;;;35.50;52.20;;;;;;5144476;27;20038;-81
2023/07/07 15:50:11;;;;;;;4.28;1.88;;;35.20;53.40;;;;;;5175155;27;20042;-81
2023/07/07 15:52:57;;;;;;;10.45;2.25;;;35.10;53.20;;;;;;5175779;27;20061;-80
2023/07/07 15:55:44;;;;;;;4.38;2.00;;;34.70;52.60;;;;;;5174975;27;20512;-80
2023/07/07 15:58:30;;;;;;;9.50;2.30;;;34.30;53.80;;;;;;5175303;27;20050;-81
2023/07/07 16:01:16;;;;;;;8.35;2.53;;;33.80;54.40;;;;;;5174805;27;20081;-82
2023/07/07 16:04:02;;;;;;;10.27;2.60;;;33.20;55.00;;;;;;5173685;27;20478;-82
2023/07/07 16:06:50;;;;;;;9.85;2.40;;;32.90;54.50;;;;;;5174870;27;20038;-81
2023/07/07 16:09:36;;;;;;;6.63;2.20;;;32.70;55.60;;;;;;5175576;27;20042;-80
2023/07/07 16:12:24;;;;;;;6.40;2.40;;;32.30;55.70;;;;;;5174498;27;20397;-80
2023/07/07 16:15:10;;;;;;;6.15;2.40;;;32.10;56.10;;;;;;5174507;27;20141;-80
2023/07/07 16:17:56;;;;;;;4.47;2.30;;;31.80;56.20;;;;;;5174021;27;20042;-81
2023/07/07 16:20:45;;;;;;;7.32;2.10;;;31.50;56.40;;;;;;5173642;27;20046;-80
2023/07/07 16:23:32;;;;;;;5.32;2.83;;;31.10;57.30;;;;;;5154766;27;20081;-80
2023/07/07 16:26:25;;;;;;;6.88;2.65;;;30.70;57.90;;;;;;5173799;27;20129;-80
2023/07/07 16:29:14;;;;;;;6.23;2.83;;;30.30;58.60;;;;;;5173016;27;20054;-80
2023/07/07 16:32:01;;;;;;;6.00;2.83;;;30.00;59.50;;;;;;5175014;27;20046;-80
2023/07/07 16:37:22;;;;;;;5.85;2.03;;;29.30;62.10;;;;;;5468073;22;20124;-81
2023/07/07 16:40:19;;;;;;;5.60;2.30;;;29.20;63.20;;;;;;5053134;28;20057;-79
2023/07/07 16:43:06;;;;;;;9.23;2.95;;;29.00;64.40;;;;;;5053376;28;20064;-79
2023/07/07 16:45:52;;;;;;;7.47;2.35;;;28.80;65.40;;;;;;5053334;28;20098;-79
2023/07/07 16:48:39;;;;;;;7.63;2.40;;;28.40;67.00;;;;;;5051236;28;20083;-81
2023/07/07 16:51:26;;;;;;;8.52;2.63;;;28.30;68.10;;;;;;5053186;28;20053;-79
2023/07/07 16:54:12;;;;;;;6.88;2.30;;;28.10;67.60;;;;;;5053654;28;20053;-79
2023/07/07 16:56:59;;;;;;;8.05;2.22;;;27.70;67.40;;;;;;5053101;28;20099;-81
2023/07/07 16:59:45;;;;;;;5.72;2.45;;;27.50;68.30;;;;;;5053466;28;20098;-82
2023/07/07 17:02:31;;;;;;;8.32;2.90;;;27.40;68.80;;;;;;5053501;28;20052;-78
2023/07/07 17:05:21;;;;;;;4.75;2.30;;;27.30;69.40;;;;;;5050345;28;20098;-79
2023/07/07 17:08:14;;;;;;;6.72;2.10;;;27.10;70.00;;;;;;5053199;28;20512;-81
2023/07/07 17:11:00;;;;;;;6.90;2.90;;;26.90;70.60;;;;;;5053098;28;20572;-80
2023/07/07 17:13:46;;;;;;;13.65;3.42;;;26.70;71.30;;;;;;5052318;28;20088;-80
2023/07/07 17:16:33;;;;;;;6.35;2.78;;;26.50;71.30;;;;;;5051648;28;20053;-80
2023/07/07 17:19:22;;;;;;;6.65;2.58;;;26.40;72.00;;;;;;5051248;28;20053;-79
2023/07/07 17:22:08;;;;;;;10.20;2.35;;;26.40;72.30;;;;;;5049906;28;20143;-81
2023/07/07 17:24:54;;;;;;;8.60;2.80;;;26.40;73.00;;;;;;5051575;28;20049;-80
2023/07/07 17:27:41;;;;;;;7.85;2.53;;;26.30;73.90;;;;;;5051723;28;20144;-80
2023/07/07 17:30:31;;;;;;;8.70;2.80;;;26.30;74.80;;;;;;5051587;28;20098;-80
2023/07/07 17:33:17;;;;;;;9.25;3.75;;;26.20;76.10;;;;;;5051494;28;20053;-79
2023/07/07 17:36:12;;;;;;;7.22;3.20;;;26.20;76.10;;;;;;5050803;28;20501;-80
2023/07/07 17:38:59;;;;;;;;;;;26.40;76.90;;;;;;5053058;28;20044;-78
2023/07/07 17:41:46;;;;;;;7.32;2.47;;;26.20;77.00;;;;;;5052316;28;19921;-79
2023/07/07 17:44:32;;;;;;;8.40;2.65;;;26.20;76.40;;;;;;5052387;28;20045;-80
2023/07/07 17:47:18;;;;;;;7.82;3.17;;;26.00;76.60;;;;;;5051859;28;20053;-80
2023/07/07 17:50:22;;;;;;;8.95;3.10;;;25.90;77.30;;;;;;5052419;28;20075;-80
2023/07/07 17:53:08;;;;;;;10.68;3.47;;;25.60;78.10;;;;;;5052160;28;20127;-79
2023/07/07 17:55:55;;;;;;;8.25;3.58;;;25.50;77.70;;;;;;5051766;28;20149;-80
2023/07/07 17:58:41;;;;;;;13.93;2.88;;;25.30;78.40;;;;;;5051658;28;20053;-79
2023/07/07 18:01:28;;;;;;;6.03;2.40;;;25.20;79.20;;;;;;5050856;28;20436;-80
2023/07/07 18:04:14;;;;;;;13.63;3.50;;;25.10;79.70;;;;;;5051168;28;20049;-80
2023/07/07 18:07:00;;;;;;;6.82;2.35;;;25.00;80.00;;;;;;5052346;28;20135;-79
2023/07/07 18:09:47;;;;;;;6.38;2.88;;;25.00;80.50;;;;;;5050472;28;20110;-80
2023/07/07 18:12:33;;;;;;;7.45;2.67;;;24.80;81.00;;;;;;5050970;28;20427;-79
2023/07/07 18:15:19;;;;;;;5.45;2.63;;;24.70;81.50;;;;;;5050582;28;20123;-79
2023/07/07 18:18:10;;;;;;;13.23;3.00;;;24.50;81.60;;;;;;5051641;28;20049;-80
2023/07/07 18:20:57;;;;;;;9.30;3.03;;;24.30;82.00;;;;;;5051096;28;20044;-79
2023/07/07 18:23:43;;;;;;;5.57;2.63;;;24.20;82.40;;;;;;5051537;28;20048;-80
2023/07/07 18:26:35;;;;;;;5.05;2.45;;;24.10;83.10;;;;;;5050490;28;20049;-80
2023/07/07 18:29:22;;;;;;;7.78;2.67;;;24.10;84.40;;;;;;5050709;28;20068;-80
2023/07/07 18:32:10;;;;;;;6.05;2.35;;;24.00;84.40;;;;;;5051148;28;20041;-79
2023/07/07 18:34:56;;;;;;;7.35;2.72;;;23.90;84.60;;;;;;5051912;28;20057;-79
2023/07/07 18:37:42;;;;;;;8.30;3.03;;;23.80;85.00;;;;;;5049847;28;20099;-81
2023/07/07 18:40:35;;;;;;;11.38;2.67;;;23.80;85.20;;;;;;5050156;28;20041;-81
2023/07/07 18:43:21;;;;;;;7.50;2.47;;;23.60;85.50;;;;;;5050345;28;20053;-80
2023/07/07 18:46:16;;;;;;;6.47;2.90;;;23.50;86.00;;;;;;5049291;28;20056;-80
2023/07/07 18:49:04;;;;;;;8.50;3.08;;;23.50;87.50;;;;;;5051174;28;20049;-80
2023/07/07 18:51:50;;;;;;;7.38;3.22;;;23.30;88.30;;;;;;5049895;28;20056;-80
2023/07/07 18:54:36;;;;;;;5.60;2.90;;;23.30;89.40;;;;;;5048340;28;20053;-80
2023/07/07 18:57:22;;;;;;;8.93;2.60;;;23.10;90.10;;;;;;5050784;28;20570;-81
2023/07/07 19:00:16;;;;;;;7.05;2.95;;;23.00;90.40;;;;;;5049562;28;20049;-80
2023/07/07 19:03:02;;;;;;;10.20;2.67;;;22.90;90.70;;;;;;5048705;28;20784;-78
2023/07/07 19:05:48;;;;;;;9.35;3.38;;;22.80;91.10;;;;;;5049746;28;20059;-79
2023/07/07 19:08:34;;;;;;;9.00;3.70;;;22.70;91.60;;;;;;5049782;28;20428;-81
2023/07/07 19:11:21;;;;;;;7.57;3.03;;;22.60;92.00;;;;;;5050636;28;20052;-82
2023/07/07 19:14:07;;;;;;;8.20;2.63;;;22.60;92.50;;;;;;5050828;28;20190;-78
2023/07/07 19:16:54;;;;;;;8.25;2.60;;;22.40;93.10;;;;;;5048963;28;20134;-77
2023/07/07 19:19:40;;;;;;;6.90;2.67;;;22.30;93.80;;;;;;5048853;28;20045;-78
2023/07/07 19:22:26;;;;;;;8.90;3.45;;;22.20;94.40;;;;;;5051088;28;20084;-80
2023/07/07 19:25:12;;;;;;;8.57;3.63;;;22.20;95.10;;;;;;5035772;28;20102;-79
2023/07/07 19:27:59;;;;;;;8.15;3.60;;;22.10;95.60;;;;;;5051713;28;20041;-81
2023/07/07 19:30:45;;;;;;;8.98;3.22;;;22.00;96.30;;;;;;5050804;28;20045;-81
2023/07/07 19:33:31;;;;;;;7.00;3.05;;;22.00;96.70;;;;;;5049508;28;20126;-80
2023/07/07 19:36:26;;;;;;;10.73;3.78;;;21.80;97.50;;;;;;5048976;28;20088;-79
2023/07/07 19:39:21;;;;;;;6.97;3.33;;;21.70;98.40;;;;;;5049231;28;20408;-77
2023/07/07 19:42:11;;;;;;;9.63;3.30;;;21.60;98.80;;;;;;5048076;28;20052;-78
2023/07/07 19:44:57;;;;;;;10.50;3.55;;;21.50;99.10;;;;;;5050379;28;20049;-80
2023/07/07 19:47:44;;;;;;;7.03;3.00;;;21.50;99.90;;;;;;5049539;28;20048;-79
2023/07/07 19:50:33;;;;;;;8.88;3.50;;;21.40;99.90;;;;;;5050465;28;20049;-79
2023/07/07 19:53:20;;;;;;;8.95;3.08;;;21.30;99.90;;;;;;5047944;28;20064;-78
2023/07/07 19:56:13;;;;;;;7.13;3.13;;;21.20;99.90;;;;;;5049959;28;20458;-79
2023/07/07 19:58:59;;;;;;;6.38;3.10;;;21.20;99.90;;;;;;5047626;28;20057;-79
2023/07/07 20:01:47;;;;;;;6.05;3.42;;;21.10;99.90;;;;;;5048716;28;20353;-78
2023/07/07 20:04:33;;;;;;;8.68;3.67;;;21.00;99.90;;;;;;5048864;28;20150;-79
2023/07/07 20:07:19;;;;;;;7.50;3.28;;;20.90;99.90;;;;;;5050090;28;20400;-78
2023/07/07 20:10:17;;;;;;;7.97;3.30;;;20.80;99.90;;;;;;5049004;28;20130;-77
2023/07/07 20:13:03;;;;;;;6.07;2.92;;;20.70;99.90;;;;;;5049583;28;20037;-79
2023/07/07 20:15:49;;;;;;;7.78;3.10;;;20.60;99.90;;;;;;5050239;28;20132;-78
2023/07/07 20:18:35;;;;;;;6.60;2.90;;;20.60;99.90;;;;;;5048303;28;20394;-79
2023/07/07 20:21:23;;;;;;;9.02;3.47;;;20.50;99.90;;;;;;5050086;28;20203;-78
2023/07/07 20:24:19;;;;;;;7.22;3.17;;;20.40;99.90;;;;;;5050080;28;20489;-77
2023/07/07 20:27:10;;;;;;;7.18;3.17;;;20.30;99.90;;;;;;5048341;28;20047;-79
2023/07/07 20:29:56;;;;;;;10.60;3.78;;;20.20;99.90;;;;;;5049675;28;20053;-78
2023/07/07 20:32:42;;;;;;;6.38;3.13;;;20.20;99.90;;;;;;5052278;28;20155;-77
2023/07/07 20:35:28;;;;;;;8.40;3.90;;;20.10;99.90;;;;;;5038675;28;20113;-78
2023/07/07 20:38:14;;;;;;;8.75;3.33;;;20.00;99.90;;;;;;5052267;28;20131;-78
2023/07/07 20:41:00;;;;;;;8.02;3.40;;;20.00;99.90;;;;;;5052374;28;20052;-77
2023/07/07 20:43:46;;;;;;;12.32;3.58;;;19.90;99.90;;;;;;5053981;28;20080;-77
2023/07/07 20:46:38;;;;;;;8.55;3.95;;;19.80;99.90;;;;;;5053142;28;20056;-76
2023/07/07 20:49:24;;;;;;;6.40;3.38;;;19.80;99.90;;;;;;5035604;28;20083;-77
2023/07/07 20:52:12;;;;;;;6.72;3.28;;;19.70;99.90;;;;;;5035346;28;20057;-78
2023/07/07 20:54:58;;;;;;;6.75;3.70;;;19.60;99.90;;;;;;5053048;28;20112;-78
2023/07/07 20:57:46;;;;;;;10.60;3.85;;;19.50;99.90;;;;;;5052134;28;20045;-77
2023/07/07 21:00:35;;;;;;;9.20;3.30;;;19.50;99.90;;;;;;5034702;28;20059;-77
2023/07/07 21:03:21;;;;;;;8.23;4.30;;;19.40;99.90;;;;;;5053290;28;20060;-75
2023/07/07 21:06:13;;;;;;;6.70;3.47;;;19.30;99.90;;;;;;5051361;28;20547;-78
2023/07/07 21:09:00;;;;;;;7.40;2.88;;;19.30;99.90;;;;;;5034861;28;20079;-76
2023/07/07 21:11:46;;;;;;;6.95;3.45;;;19.20;99.90;;;;;;5053097;28;20053;-76
2023/07/07 21:14:32;;;;;;;9.63;4.00;;;19.10;99.90;;;;;;5053219;28;20052;-78
2023/07/07 21:17:18;;;;;;;7.95;3.38;;;19.10;99.90;;;;;;5052968;28;20052;-78
2023/07/07 21:20:33;;;;;;;8.77;3.50;;;19.00;99.90;;;;;;5053285;28;20052;-78
2023/07/07 21:23:20;;;;;;;5.93;3.57;;;19.00;99.90;;;;;;5052403;28;20064;-77
2023/07/07 21:26:31;;;;;;;6.43;3.58;;;18.80;99.90;;;;;;5034505;28;20505;-77
2023/07/07 21:29:18;;;;;;;7.47;3.55;;;18.80;99.90;;;;;;5021355;28;20071;-79
2023/07/07 21:32:09;;;;;;;10.60;3.85;;;18.70;99.90;;;;;;5052129;28;20088;-77
2023/07/07 21:34:55;;;;;;;7.75;3.80;;;18.60;99.90;;;;;;5034819;28;20053;-77
2023/07/07 21:37:43;;;;;;;9.02;3.55;;;18.60;99.90;;;;;;5067147;28;20055;-76
2023/07/07 21:40:29;;;;;;;8.40;2.97;;;18.50;99.90;;;;;;5072043;28;20053;-77
2023/07/07 21:43:15;;;;;;;7.45;3.60;;;18.50;99.90;;;;;;5066548;28;20055;-78
2023/07/07 21:46:02;;;;;;;8.38;3.50;;;18.50;99.90;;;;;;5071592;28;20074;-76
2023/07/07 21:48:48;;;;;;;5.07;2.75;;;18.50;99.90;;;;;;5071935;28;20044;-78
2023/07/07 21:51:34;;;;;;;8.27;2.90;;;18.40;99.90;;;;;;5053892;28;20122;-77
2023/07/07 21:54:20;;;;;;;8.02;3.17;;;18.40;99.90;;;;;;5057074;28;20056;-75
2023/07/07 21:57:29;;;;;;;6.88;2.90;;;18.40;99.90;;;;;;5071097;28;20059;-78
2023/07/07 22:00:19;;;;;;;7.88;2.97;;;18.30;99.90;;;;;;5072258;28;20401;-78
2023/07/07 22:03:16;;;;;;;7.97;3.63;;;18.30;99.90;;;;;;5065433;28;20037;-80
2023/07/07 22:06:13;;;;;;;11.63;3.38;;;18.30;99.90;;;;;;5046756;28;20053;-77
2023/07/07 22:08:59;;;;;;;8.25;3.15;;;18.30;99.90;;;;;;5071117;28;20047;-79
2023/07/07 22:11:45;;;;;;;8.18;3.33;;;18.20;99.90;;;;;;5072122;28;20087;-77
2023/07/07 22:14:34;;;;;;;6.28;3.08;;;18.10;99.90;;;;;;5057035;28;20570;-76
2023/07/07 22:17:20;;;;;;;7.07;3.40;;;18.10;99.90;;;;;;5070529;28;20060;-78